createdAt,value
2022-08-30T00:01:03.652Z,25.90
2022-08-30T00:03:43.814Z,25.80
2022-08-30T00:06:11.190Z,25.80
2022-08-30T00:08:38.645Z,25.70
2022-08-30T00:11:09.839Z,25.70
2022-08-30T00:13:37.627Z,25.70
2022-08-30T00:16:06.754Z,25.70
2022-08-30T00:18:35.482Z,25.60
2022-08-30T00:21:03.203Z,25.60
2022-08-30T00:23:30.322Z,25.60
2022-08-30T00:25:57.079Z,25.60
2022-08-30T00:28:24.087Z,25.60
2022-08-30T00:30:50.968Z,25.50
2022-08-30T00:33:18.193Z,25.50
2022-08-30T00:35:45.182Z,25.50
2022-08-30T00:38:13.213Z,25.40
2022-08-30T00:40:42.237Z,25.40
2022-08-30T00:43:14.123Z,25.40
2022-08-30T00:45:41.318Z,25.40
2022-08-30T00:48:08.360Z,25.30
2022-08-30T00:50:43.290Z,25.30
2022-08-30T00:53:17.700Z,25.30
2022-08-30T00:55:45.020Z,25.30
2022-08-30T00:58:19.874Z,25.20
2022-08-30T01:00:48.918Z,25.20
2022-08-30T01:03:16.435Z,25.20
2022-08-30T01:05:43.982Z,25.20
2022-08-30T01:08:10.886Z,25.10
2022-08-30T01:10:38.443Z,25.10
2022-08-30T01:13:05.985Z,25.10
2022-08-30T01:15:34.333Z,25.10
2022-08-30T01:18:02.619Z,25.00
2022-08-30T01:20:36.084Z,25.00
2022-08-30T01:23:15.846Z,24.90
2022-08-30T01:25:46.445Z,24.90
2022-08-30T01:28:21.582Z,24.90
2022-08-30T01:30:48.707Z,24.90
2022-08-30T01:33:15.787Z,24.80
2022-08-30T01:36:12.299Z,24.80
2022-08-30T01:38:47.733Z,24.80
2022-08-30T01:41:22.475Z,24.80
2022-08-30T01:43:51.206Z,24.80
2022-08-30T01:46:20.220Z,24.70
2022-08-30T01:48:51.972Z,24.70
2022-08-30T01:51:21.971Z,24.70
2022-08-30T01:53:49.090Z,24.60
2022-08-30T01:56:16.150Z,24.60
2022-08-30T01:58:43.522Z,24.50
2022-08-30T02:01:16.795Z,24.50
2022-08-30T02:03:44.986Z,24.40
2022-08-30T02:06:15.902Z,24.40
2022-08-30T02:08:43.734Z,24.30
2022-08-30T02:11:11.511Z,24.30
2022-08-30T02:13:40.330Z,24.20
2022-08-30T02:16:09.763Z,24.20
2022-08-30T02:18:39.279Z,24.10
2022-08-30T02:21:07.321Z,24.10
2022-08-30T02:23:34.883Z,24.00
2022-08-30T02:26:01.870Z,24.00
2022-08-30T02:28:29.125Z,24.00
2022-08-30T02:30:55.965Z,23.90
2022-08-30T02:33:22.806Z,23.90
2022-08-30T02:35:49.912Z,23.90
2022-08-30T02:38:19.926Z,23.90
2022-08-30T02:40:47.257Z,23.80
2022-08-30T02:43:14.248Z,23.80
2022-08-30T02:45:41.171Z,23.80
2022-08-30T02:48:08.826Z,23.80
2022-08-30T02:50:40.017Z,23.80
2022-08-30T02:53:06.871Z,23.80
2022-08-30T02:55:36.317Z,23.80
2022-08-30T02:58:03.417Z,23.80
2022-08-30T03:00:30.951Z,23.80
2022-08-30T03:02:58.546Z,23.80
2022-08-30T03:05:25.885Z,23.80
2022-08-30T03:07:52.754Z,23.80
2022-08-30T03:10:19.631Z,23.80
2022-08-30T03:12:47.943Z,23.70
2022-08-30T03:15:15.759Z,23.70
2022-08-30T03:17:42.629Z,23.70
2022-08-30T03:20:10.434Z,23.70
2022-08-30T03:22:37.594Z,23.70
2022-08-30T03:25:05.020Z,23.70
2022-08-30T03:27:32.198Z,23.60
2022-08-30T03:29:58.962Z,23.60
2022-08-30T03:32:26.046Z,23.60
2022-08-30T03:34:53.099Z,23.60
2022-08-30T03:37:23.308Z,23.60
2022-08-30T03:39:52.366Z,23.50
2022-08-30T03:42:20.036Z,23.50
2022-08-30T03:44:48.665Z,23.50
2022-08-30T03:47:15.675Z,23.50
2022-08-30T03:49:42.928Z,23.40
2022-08-30T03:52:09.854Z,23.40
2022-08-30T03:54:36.642Z,23.40
2022-08-30T03:57:05.072Z,23.40
2022-08-30T03:59:32.346Z,23.40
2022-08-30T04:01:59.264Z,23.40
2022-08-30T04:04:26.185Z,23.40
2022-08-30T04:06:53.033Z,23.40
2022-08-30T04:09:19.963Z,23.30
2022-08-30T04:11:47.205Z,23.30
2022-08-30T04:14:14.073Z,23.30
2022-08-30T04:16:40.923Z,23.30
2022-08-30T04:19:07.794Z,23.30
2022-08-30T04:21:35.072Z,23.20
2022-08-30T04:24:09.622Z,23.20
2022-08-30T04:26:36.696Z,23.20
2022-08-30T04:29:03.783Z,23.20
2022-08-30T04:31:31.339Z,23.20
2022-08-30T04:33:58.245Z,23.20
2022-08-30T04:36:25.057Z,23.10
2022-08-30T04:38:51.889Z,23.10
2022-08-30T04:41:19.790Z,23.10
2022-08-30T04:43:50.426Z,23.00
2022-08-30T04:46:18.956Z,23.00
2022-08-30T04:48:46.387Z,23.00
2022-08-30T04:51:15.610Z,22.90
2022-08-30T04:53:43.188Z,22.90
2022-08-30T04:56:16.642Z,22.90
2022-08-30T04:58:47.822Z,22.80
2022-08-30T05:01:20.396Z,22.80
2022-08-30T05:03:51.882Z,22.80
2022-08-30T05:06:19.587Z,22.80
2022-08-30T05:08:46.843Z,22.70
2022-08-30T05:11:15.529Z,22.60
2022-08-30T05:13:43.276Z,22.70
2022-08-30T05:16:10.296Z,22.70
2022-08-30T05:18:37.266Z,22.70
2022-08-30T05:21:03.978Z,22.70
2022-08-30T05:23:30.847Z,22.70
2022-08-30T05:25:57.647Z,22.70
2022-08-30T05:28:26.361Z,22.70
2022-08-30T05:30:53.359Z,22.80
2022-08-30T05:33:20.118Z,22.80
2022-08-30T05:35:46.925Z,22.80
2022-08-30T05:38:13.672Z,22.80
2022-08-30T05:40:42.040Z,22.80
2022-08-30T05:43:10.134Z,22.80
2022-08-30T05:45:37.959Z,22.80
2022-08-30T05:48:05.353Z,22.80
2022-08-30T05:50:33.380Z,22.90
2022-08-30T05:53:00.907Z,22.90
2022-08-30T05:55:27.652Z,22.90
2022-08-30T05:57:54.556Z,22.90
2022-08-30T06:00:21.603Z,22.90
2022-08-30T06:02:53.378Z,23.00
2022-08-30T06:05:20.173Z,23.00
2022-08-30T06:07:47.611Z,23.00
2022-08-30T06:10:15.422Z,23.10
2022-08-30T06:12:44.119Z,23.10
2022-08-30T06:15:11.509Z,23.10
2022-08-30T06:17:39.663Z,23.20
2022-08-30T06:20:07.238Z,23.20
2022-08-30T06:22:34.356Z,23.30
2022-08-30T06:25:01.187Z,23.30
2022-08-30T06:27:27.954Z,23.30
2022-08-30T06:29:54.716Z,23.40
2022-08-30T06:32:21.575Z,23.40
2022-08-30T06:34:48.635Z,23.50
2022-08-30T06:37:21.977Z,23.50
2022-08-30T06:39:58.481Z,23.50
2022-08-30T06:42:32.190Z,23.60
2022-08-30T06:45:11.050Z,23.60
2022-08-30T06:47:38.703Z,23.70
2022-08-30T06:50:06.127Z,23.70
2022-08-30T06:52:33.342Z,23.70
2022-08-30T06:55:01.457Z,23.80
2022-08-30T06:57:28.277Z,23.80
2022-08-30T06:59:57.295Z,23.90
2022-08-30T07:02:26.323Z,23.90
2022-08-30T07:04:53.418Z,24.00
2022-08-30T07:07:20.227Z,24.10
2022-08-30T07:09:47.224Z,24.10
2022-08-30T07:12:15.456Z,24.20
2022-08-30T07:14:43.052Z,24.20
2022-08-30T07:17:31.298Z,24.30
2022-08-30T07:20:01.229Z,24.30
2022-08-30T07:22:28.971Z,24.40
2022-08-30T07:24:55.720Z,24.50
2022-08-30T07:27:22.504Z,24.50
2022-08-30T07:29:49.820Z,24.60
2022-08-30T07:32:16.684Z,24.70
2022-08-30T07:34:43.521Z,24.80
2022-08-30T07:37:10.312Z,24.80
2022-08-30T07:39:47.773Z,24.90
2022-08-30T07:42:15.846Z,25.00
2022-08-30T07:44:42.603Z,25.00
2022-08-30T07:47:09.751Z,25.20
2022-08-30T07:49:37.078Z,25.20
2022-08-30T07:52:04.488Z,25.30
2022-08-30T07:54:31.288Z,25.40
2022-08-30T07:56:58.057Z,25.50
2022-08-30T07:59:25.168Z,25.60
2022-08-30T08:01:51.990Z,25.70
2022-08-30T08:04:19.501Z,25.80
2022-08-30T08:06:46.452Z,25.80
2022-08-30T08:09:13.788Z,26.00
2022-08-30T08:11:41.441Z,26.10
2022-08-30T08:14:08.470Z,26.20
2022-08-30T08:16:38.606Z,26.30
2022-08-30T08:19:09.007Z,26.40
2022-08-30T08:21:36.872Z,26.50
2022-08-30T08:24:04.014Z,26.60
2022-08-30T08:26:33.605Z,26.70
2022-08-30T08:29:00.417Z,26.80
2022-08-30T08:31:33.252Z,27.00
2022-08-30T08:34:03.033Z,27.10
2022-08-30T08:36:31.336Z,27.20
2022-08-30T08:38:58.690Z,27.30
2022-08-30T08:41:43.533Z,27.40
2022-08-30T08:44:50.809Z,27.50
2022-08-30T08:47:56.010Z,27.60
2022-08-30T08:50:24.191Z,27.80
2022-08-30T08:53:45.220Z,27.80
2022-08-30T08:56:12.632Z,28.00
2022-08-30T08:58:49.302Z,28.00
2022-08-30T09:01:19.026Z,28.10
2022-08-30T09:03:46.758Z,28.30
2022-08-30T09:06:45.416Z,28.40
2022-08-30T09:09:13.622Z,28.50
2022-08-30T09:11:42.202Z,28.60
2022-08-30T09:14:38.812Z,28.70
2022-08-30T09:17:09.650Z,28.80
2022-08-30T09:19:42.610Z,28.90
2022-08-30T09:22:31.136Z,29.00
2022-08-30T09:25:11.516Z,29.10
2022-08-30T09:27:46.874Z,29.30
2022-08-30T09:30:18.273Z,29.40
2022-08-30T09:32:57.147Z,29.50
2022-08-30T09:35:38.122Z,29.60
2022-08-30T09:38:18.101Z,29.70
2022-08-30T09:40:49.008Z,29.80
2022-08-30T09:43:31.606Z,29.80
2022-08-30T09:46:01.463Z,29.90
2022-08-30T09:48:37.699Z,30.00
2022-08-30T09:51:10.926Z,30.10
2022-08-30T09:54:18.608Z,30.20
2022-08-30T09:57:01.030Z,30.30
2022-08-30T09:59:33.847Z,30.40
2022-08-30T10:02:00.539Z,30.50
2022-08-30T10:04:47.747Z,30.60
2022-08-30T10:07:29.283Z,30.70
2022-08-30T10:10:07.417Z,30.70
2022-08-30T10:13:02.751Z,30.80
2022-08-30T10:15:32.206Z,30.90
2022-08-30T10:18:20.847Z,31.00
2022-08-30T10:21:19.166Z,31.00
2022-08-30T10:23:52.084Z,31.10
2022-08-30T10:26:39.978Z,31.10
2022-08-30T10:29:14.710Z,31.10
2022-08-30T10:31:52.255Z,31.10
2022-08-30T10:34:40.818Z,31.20
2022-08-30T10:37:11.845Z,31.20
2022-08-30T10:39:48.889Z,31.20
2022-08-30T10:42:24.585Z,31.30
2022-08-30T10:45:05.197Z,31.30
2022-08-30T10:47:41.772Z,31.40
2022-08-30T10:50:25.103Z,31.40
2022-08-30T10:52:59.335Z,31.50
2022-08-30T10:55:35.485Z,31.60
2022-08-30T10:58:06.266Z,31.70
2022-08-30T11:01:12.676Z,31.70
2022-08-30T11:03:53.083Z,31.80
2022-08-30T11:06:47.819Z,31.90
2022-08-30T11:09:26.684Z,32.00
2022-08-30T11:12:24.506Z,32.10
2022-08-30T11:14:53.965Z,32.20
2022-08-30T11:17:26.823Z,32.30
2022-08-30T11:19:56.663Z,32.40
2022-08-30T11:22:38.635Z,32.50
2022-08-30T11:25:13.971Z,32.60
2022-08-30T11:27:58.942Z,32.70
2022-08-30T11:30:27.092Z,32.80
2022-08-30T11:32:59.369Z,32.90
2022-08-30T11:35:37.537Z,32.90
2022-08-30T11:38:36.771Z,33.10
2022-08-30T11:41:09.658Z,33.20
2022-08-30T11:43:51.323Z,33.30
2022-08-30T11:46:26.047Z,33.30
2022-08-30T11:49:13.021Z,33.40
2022-08-30T11:52:27.201Z,33.50
2022-08-30T11:55:09.501Z,33.60
2022-08-30T11:57:58.728Z,33.60
2022-08-30T12:00:34.688Z,33.70
2022-08-30T12:03:05.360Z,33.80
2022-08-30T12:05:38.635Z,33.90
2022-08-30T12:08:12.541Z,34.00
2022-08-30T12:10:41.694Z,34.10
2022-08-30T12:13:09.435Z,34.10
2022-08-30T12:15:57.871Z,34.20
2022-08-30T12:18:33.782Z,34.30
2022-08-30T12:21:08.584Z,34.30
2022-08-30T12:23:48.410Z,34.40
2022-08-30T12:26:37.620Z,34.50
2022-08-30T12:29:29.789Z,34.50
2022-08-30T12:32:18.317Z,34.60
2022-08-30T12:34:45.059Z,34.70
2022-08-30T12:37:36.754Z,34.80
2022-08-30T12:40:09.097Z,34.80
2022-08-30T12:42:41.178Z,34.90
2022-08-30T12:45:14.564Z,35.00
2022-08-30T12:47:51.057Z,35.10
2022-08-30T12:50:22.967Z,35.10
2022-08-30T12:53:08.460Z,35.20
2022-08-30T12:55:57.010Z,35.40
2022-08-30T12:58:39.097Z,35.40
2022-08-30T13:01:27.395Z,35.50
2022-08-30T13:04:25.027Z,35.60
2022-08-30T13:06:56.014Z,35.70
2022-08-30T13:09:34.627Z,35.80
2022-08-30T13:12:04.970Z,35.90
2022-08-30T13:14:34.578Z,36.00
2022-08-30T13:17:18.517Z,36.20
2022-08-30T13:20:01.300Z,36.30
2022-08-30T13:22:34.150Z,36.40
2022-08-30T13:25:01.602Z,36.50
2022-08-30T13:27:29.396Z,36.60
2022-08-30T13:29:57.106Z,36.60
2022-08-30T13:32:24.419Z,36.70
2022-08-30T13:34:51.182Z,36.80
2022-08-30T13:40:13.403Z,36.90
2022-08-30T13:42:43.078Z,37.00
2022-08-30T13:48:00.882Z,36.90
2022-08-30T13:50:28.062Z,36.90
2022-08-30T13:52:54.821Z,36.90
2022-08-30T13:55:21.575Z,36.90
2022-08-30T13:57:56.680Z,37.00
2022-08-30T14:00:25.697Z,37.00
2022-08-30T14:02:56.111Z,37.10
2022-08-30T14:11:05.131Z,37.30
2022-08-30T14:13:32.014Z,37.30
2022-08-30T14:18:48.363Z,37.40
2022-08-30T14:21:16.210Z,37.40
2022-08-30T14:23:43.343Z,37.40
2022-08-30T14:26:19.930Z,37.40
2022-08-30T14:28:47.090Z,37.40
2022-08-30T14:31:19.998Z,37.30
2022-08-30T14:33:47.724Z,37.20
2022-08-30T14:36:15.693Z,37.20
2022-08-30T14:38:43.526Z,37.10
2022-08-30T14:41:10.958Z,37.00
2022-08-30T14:43:40.254Z,36.90
2022-08-30T14:46:08.810Z,36.80
2022-08-30T14:48:36.915Z,36.70
2022-08-30T14:51:15.370Z,36.50
2022-08-30T14:53:42.830Z,36.40
2022-08-30T14:56:12.290Z,36.30
2022-08-30T14:58:39.218Z,36.30
2022-08-30T15:01:08.815Z,36.20
2022-08-30T15:03:37.920Z,36.10
2022-08-30T15:06:05.948Z,36.00
2022-08-30T15:08:34.515Z,35.90
2022-08-30T15:11:07.678Z,35.80
2022-08-30T15:13:34.437Z,35.70
2022-08-30T15:16:01.237Z,35.60
2022-08-30T15:18:28.033Z,35.60
2022-08-30T15:20:55.025Z,35.50
2022-08-30T15:23:24.929Z,35.40
2022-08-30T15:25:51.913Z,35.40
2022-08-30T15:28:19.313Z,35.30
2022-08-30T15:30:46.387Z,35.20
2022-08-30T15:33:13.159Z,35.10
2022-08-30T15:35:41.493Z,35.10
2022-08-30T15:38:08.662Z,35.00
2022-08-30T15:40:39.434Z,35.00
2022-08-30T15:43:06.575Z,34.90
2022-08-30T15:45:33.654Z,34.90
2022-08-30T15:48:00.990Z,34.80
2022-08-30T15:50:28.386Z,34.70
2022-08-30T15:52:55.312Z,34.70
2022-08-30T15:55:22.154Z,34.70
2022-08-30T15:57:48.919Z,34.60
2022-08-30T16:00:16.130Z,34.60
2022-08-30T16:02:43.827Z,34.50
2022-08-30T16:05:10.790Z,34.50
2022-08-30T16:07:40.849Z,34.50
2022-08-30T16:10:09.029Z,34.40
2022-08-30T16:12:35.825Z,34.40
2022-08-30T16:15:02.572Z,34.40
2022-08-30T16:17:29.410Z,34.30
2022-08-30T16:19:58.893Z,34.30
2022-08-30T16:22:26.482Z,34.30
2022-08-30T16:24:53.497Z,34.20
2022-08-30T16:27:21.175Z,34.20
2022-08-30T16:29:48.561Z,34.20
2022-08-30T16:32:17.759Z,34.10
2022-08-30T16:34:45.150Z,34.10
2022-08-30T16:37:11.953Z,34.00
2022-08-30T16:39:38.719Z,34.00
2022-08-30T16:42:06.841Z,33.90
2022-08-30T16:44:33.717Z,33.80
2022-08-30T16:47:01.725Z,33.80
2022-08-30T16:49:28.613Z,33.70
2022-08-30T16:51:55.367Z,33.70
2022-08-30T16:54:23.678Z,33.60
2022-08-30T16:56:51.234Z,33.60
2022-08-30T16:59:18.885Z,33.50
2022-08-30T17:01:45.822Z,33.50
2022-08-30T17:04:18.204Z,33.40
2022-08-30T17:06:47.938Z,33.40
2022-08-30T17:09:16.840Z,33.30
2022-08-30T17:11:45.071Z,33.30
2022-08-30T17:14:11.859Z,33.20
2022-08-30T17:16:38.954Z,33.10
2022-08-30T17:19:08.421Z,33.10
2022-08-30T17:21:35.618Z,33.00
2022-08-30T17:24:03.207Z,33.00
2022-08-30T17:26:35.285Z,32.90
2022-08-30T17:29:02.778Z,32.90
2022-08-30T17:31:31.028Z,32.80
2022-08-30T17:34:03.461Z,32.80
2022-08-30T17:36:33.052Z,32.70
2022-08-30T17:39:10.349Z,32.70
2022-08-30T17:41:39.968Z,32.60
2022-08-30T17:44:12.542Z,32.50
2022-08-30T17:46:39.882Z,32.50
2022-08-30T17:49:10.419Z,32.40
2022-08-30T17:51:40.782Z,32.40
2022-08-30T17:54:09.186Z,32.40
2022-08-30T17:56:35.986Z,32.30
2022-08-30T17:59:05.433Z,32.20
2022-08-30T18:01:32.386Z,32.20
2022-08-30T18:04:02.089Z,32.10
2022-08-30T18:06:34.020Z,32.10
2022-08-30T18:09:04.284Z,32.00
2022-08-30T18:11:36.040Z,32.00
2022-08-30T18:14:04.584Z,31.90
2022-08-30T18:16:35.980Z,31.90
2022-08-30T18:19:09.618Z,31.80
2022-08-30T18:21:37.864Z,31.70
2022-08-30T18:24:05.749Z,31.70
2022-08-30T18:26:33.006Z,31.70
2022-08-30T18:29:00.583Z,31.60
2022-08-30T18:31:27.546Z,31.60
2022-08-30T18:33:58.874Z,31.50
2022-08-30T18:36:27.773Z,31.50
2022-08-30T18:38:54.821Z,31.40
2022-08-30T18:41:21.690Z,31.40
2022-08-30T18:43:48.693Z,31.30
2022-08-30T18:46:18.170Z,31.30
2022-08-30T18:48:46.470Z,31.10
2022-08-30T18:51:18.886Z,31.20
2022-08-30T18:53:47.278Z,31.10
2022-08-30T18:56:16.621Z,31.10
2022-08-30T18:58:45.049Z,31.00
2022-08-30T19:01:12.724Z,31.00
2022-08-30T19:03:40.702Z,30.90
2022-08-30T19:06:11.594Z,30.90
2022-08-30T19:08:40.194Z,30.80
2022-08-30T19:11:08.826Z,30.80
2022-08-30T19:13:37.327Z,30.70
2022-08-30T19:16:06.116Z,30.70
2022-08-30T19:18:34.454Z,30.60
2022-08-30T19:21:03.760Z,30.60
2022-08-30T19:23:34.376Z,30.60
2022-08-30T19:26:01.402Z,30.50
2022-08-30T19:28:28.501Z,30.50
2022-08-30T19:30:55.293Z,30.50
2022-08-30T19:33:22.061Z,30.50
2022-08-30T19:35:51.281Z,30.40
2022-08-30T19:38:19.976Z,30.40
2022-08-30T19:40:50.052Z,30.40
2022-08-30T19:43:20.700Z,30.30
2022-08-30T19:45:55.754Z,30.30
2022-08-30T19:48:31.994Z,30.30
2022-08-30T19:51:00.578Z,30.20
2022-08-30T19:53:27.370Z,30.20
2022-08-30T19:55:54.578Z,30.20
2022-08-30T19:58:21.654Z,30.10
2022-08-30T20:00:54.436Z,30.00
2022-08-30T20:03:28.074Z,29.90
2022-08-30T20:05:54.895Z,29.70
2022-08-30T20:08:22.057Z,29.40
2022-08-30T20:10:48.883Z,29.20
2022-08-30T20:13:17.213Z,28.90
2022-08-30T20:15:57.966Z,28.60
2022-08-30T20:18:26.463Z,28.50
2022-08-30T20:20:53.474Z,28.30
2022-08-30T20:26:08.437Z,28.10
2022-08-30T20:28:35.315Z,28.00
2022-08-30T20:31:04.710Z,28.00
2022-08-30T20:33:33.807Z,27.90
2022-08-30T20:36:01.751Z,27.80
2022-08-30T20:38:28.599Z,27.70
2022-08-30T20:40:58.881Z,27.70
2022-08-30T20:43:28.242Z,27.70
2022-08-30T20:45:55.972Z,27.60
2022-08-30T20:48:23.829Z,27.50
2022-08-30T20:50:50.573Z,27.50
2022-08-30T20:53:17.330Z,27.40
2022-08-30T20:55:47.049Z,27.30
2022-08-30T20:58:15.084Z,27.30
2022-08-30T21:00:45.847Z,27.20
2022-08-30T21:03:26.315Z,27.20
2022-08-30T21:05:56.350Z,27.10
2022-08-30T21:08:23.170Z,27.10
2022-08-30T21:10:50.071Z,27.00
2022-08-30T21:13:17.380Z,26.90
2022-08-30T21:15:47.240Z,26.90
2022-08-30T21:18:14.724Z,26.80
2022-08-30T21:20:42.032Z,26.80
2022-08-30T21:23:09.787Z,26.70
2022-08-30T21:25:41.758Z,26.70
2022-08-30T21:28:09.402Z,26.60
2022-08-30T21:30:37.427Z,26.60
2022-08-30T21:33:06.399Z,26.50
2022-08-30T21:35:52.403Z,26.50
2022-08-30T21:38:19.967Z,26.40
2022-08-30T21:40:48.440Z,26.40
2022-08-30T21:43:15.965Z,26.40
2022-08-30T21:45:44.438Z,26.40
2022-08-30T21:48:12.896Z,26.30
2022-08-30T21:50:41.743Z,26.30
2022-08-30T21:53:08.872Z,26.20
2022-08-30T21:55:35.626Z,26.20
2022-08-30T21:58:03.792Z,26.20
2022-08-30T22:00:32.033Z,26.20
2022-08-30T22:02:58.849Z,26.20
2022-08-30T22:05:25.782Z,26.10
2022-08-30T22:07:52.531Z,26.10
2022-08-30T22:10:21.326Z,26.20
2022-08-30T22:12:48.466Z,26.20
2022-08-30T22:15:15.529Z,26.20
2022-08-30T22:17:43.431Z,26.20
2022-08-30T22:20:11.888Z,26.20
2022-08-30T22:22:45.591Z,26.20
2022-08-30T22:25:12.485Z,26.20
2022-08-30T22:27:39.276Z,26.20
2022-08-30T22:30:06.632Z,26.20
2022-08-30T22:32:33.411Z,26.10
2022-08-30T22:35:00.157Z,26.10
2022-08-30T22:37:26.934Z,26.10
2022-08-30T22:39:53.754Z,26.10
2022-08-30T22:42:20.497Z,26.00
2022-08-30T22:44:48.329Z,26.00
2022-08-30T22:47:15.086Z,26.00
2022-08-30T22:49:41.840Z,26.00
2022-08-30T22:52:09.002Z,25.90
2022-08-30T22:54:37.081Z,25.90
2022-08-30T22:57:04.499Z,25.90
2022-08-30T22:59:32.506Z,25.80
2022-08-30T23:01:59.960Z,25.80
2022-08-30T23:04:26.845Z,25.70
2022-08-30T23:06:53.608Z,25.70
2022-08-30T23:09:20.378Z,25.70
2022-08-30T23:11:47.249Z,25.70
2022-08-30T23:14:14.115Z,25.70
2022-08-30T23:16:41.005Z,25.60
2022-08-30T23:19:07.874Z,25.60
2022-08-30T23:21:34.686Z,25.60
2022-08-30T23:24:20.224Z,25.60
2022-08-30T23:27:06.275Z,25.60
2022-08-30T23:29:51.969Z,25.50
2022-08-30T23:32:38.030Z,25.50
2022-08-30T23:35:29.690Z,25.50
2022-08-30T23:38:17.215Z,25.40
2022-08-30T23:41:02.218Z,25.40
2022-08-30T23:43:47.360Z,25.40
2022-08-30T23:46:33.198Z,25.40
2022-08-30T23:49:18.293Z,25.30
2022-08-30T23:52:03.927Z,25.30
2022-08-30T23:54:49.548Z,25.30
2022-08-30T23:57:34.796Z,25.30
